Time;durP1;ratioP1;P1;durP2;ratioP2;P2;SDS_P1;SDS_P2;PMS_P1;PMS_P2;Temp;Humidity;BMP_temperature;BMP_pressure;BME280_temperature;BME280_humidity;BME280_pressure;Samples;Min_cycle;Max_cycle;Signal;HPM_P1;HPM_P2
2023/08/28 00:01:48;;;;;;;17.42;16.42;;;;;;;;;;5070840;28;20040;-66
2023/08/28 00:04:14;;;;;;;18.27;17.27;;;;;;;;;;5086061;28;20023;-66
2023/08/28 00:06:39;;;;;;;18.60;17.58;;;;;;;;;;5103982;28;20093;-66
2023/08/28 00:09:04;;;;;;;18.15;16.77;;;;;;;;;;5105147;28;20031;-65
2023/08/28 00:11:30;;;;;;;18.58;17.58;;;;;;;;;;5103322;28;20037;-65
2023/08/28 00:13:55;;;;;;;17.42;16.42;;;;;;;;;;5104984;28;20032;-66
2023/08/28 00:16:20;;;;;;;19.13;18.05;;;;;;;;;;5106100;28;20063;-66
2023/08/28 00:18:46;;;;;;;17.98;16.88;;;;;;;;;;5104480;28;20257;-66
2023/08/28 00:21:11;;;;;;;18.90;17.88;;;;;;;;;;5105110;28;20038;-66
2023/08/28 00:23:37;;;;;;;18.27;17.27;;;;;;;;;;5103530;28;20045;-67
2023/08/28 00:26:02;;;;;;;20.05;18.95;;;;;;;;;;5103808;28;20051;-67
2023/08/28 00:28:28;;;;;;;19.35;17.40;;;;;;;;;;5104168;28;20032;-68
2023/08/28 00:30:53;;;;;;;18.35;17.33;;;;;;;;;;5084826;28;20035;-70
2023/08/28 00:33:18;;;;;;;17.80;16.80;;;;;;;;;;5105738;28;20089;-66
2023/08/28 00:35:44;;;;;;;18.02;17.02;;;;;;;;;;5105006;28;20040;-66
2023/08/28 00:38:10;;;;;;;18.95;17.92;;;;;;;;;;5105205;28;20047;-65
2023/08/28 00:40:39;;;;;;;17.90;16.90;;;;;;;;;;5103875;28;20122;-65
2023/08/28 00:43:05;;;;;;;17.25;16.30;;;;;;;;;;5105160;27;20039;-65
2023/08/28 00:45:30;;;;;;;18.33;17.33;;;;;;;;;;5105422;28;20042;-68
2023/08/28 00:47:56;;;;;;;17.33;16.38;;;;;;;;;;5105678;27;20575;-67
2023/08/28 00:50:21;;;;;;;18.55;17.55;;;;;;;;;;5104892;28;20035;-68
2023/08/28 00:52:47;;;;;;;19.42;18.35;;;;;;;;;;5103805;28;20043;-65
2023/08/28 00:55:13;;;;;;;22.52;21.33;;;;;;;;;;5105816;28;20108;-68
2023/08/28 00:57:38;;;;;;;26.98;25.58;;;;;;;;;;5102386;28;20177;-65
2023/08/28 01:00:05;;;;;;;32.33;30.63;;;;;;;;;;5104159;28;20385;-65
2023/08/28 01:02:31;;;;;;;33.05;31.35;;;;;;;;;;5085225;28;20027;-66
2023/08/28 01:04:58;;;;;;;35.13;33.33;;;;;;;;;;5105580;28;20174;-68
2023/08/28 01:07:30;;;;;;;33.00;31.30;;;;;;;;;;5104784;28;20059;-68
2023/08/28 01:10:09;;;;;;;32.20;30.52;;;;;;;;;;5102018;28;20118;-65
2023/08/28 01:12:51;;;;;;;31.35;29.63;;;;;;;;;;5104573;28;20057;-65
2023/08/28 01:15:20;;;;;;;32.92;31.23;;;;;;;;;;5103489;28;20039;-68
2023/08/28 01:17:49;;;;;;;31.38;29.77;;;;;;;;;;5100561;28;20028;-68
2023/08/28 01:20:15;;;;;;;29.80;28.25;;;;;;;;;;5100259;28;20412;-65
2023/08/28 01:23:02;;;;;;;32.95;31.25;;;;;;;;;;5083267;28;20035;-66
2023/08/28 01:25:29;;;;;;;34.67;32.88;;;;;;;;;;5104016;28;20362;-66
2023/08/28 01:27:56;;;;;;;32.58;30.88;;;;;;;;;;5078460;27;20105;-68
2023/08/28 01:30:21;;;;;;;36.40;34.50;;;;;;;;;;5105015;28;20043;-68
2023/08/28 01:32:47;;;;;;;38.55;36.58;;;;;;;;;;5103799;28;20031;-65
2023/08/28 01:35:19;;;;;;;31.42;29.83;;;;;;;;;;5104241;28;20089;-65
2023/08/28 01:38:03;;;;;;;23.98;22.48;;;;;;;;;;5103334;28;20016;-66
2023/08/28 01:40:43;;;;;;;22.83;21.63;;;;;;;;;;5101667;28;20036;-66
2023/08/28 01:43:11;;;;;;;18.25;17.25;;;;;;;;;;5103172;28;20070;-67
2023/08/28 01:45:38;;;;;;;20.00;18.88;;;;;;;;;;5084389;28;20031;-65
2023/08/28 01:48:06;;;;;;;19.35;18.15;;;;;;;;;;5102391;28;20035;-68
2023/08/28 01:50:32;;;;;;;23.63;22.35;;;;;;;;;;5103318;28;20028;-68
2023/08/28 01:52:57;;;;;;;30.52;28.92;;;;;;;;;;5101940;28;20089;-68
2023/08/28 01:55:34;;;;;;;33.22;31.50;;;;;;;;;;5103458;28;20641;-66
2023/08/28 01:57:59;;;;;;;39.63;37.60;;;;;;;;;;5104168;28;20044;-68
2023/08/28 02:00:25;;;;;;;44.22;41.97;;;;;;;;;;5099725;28;20580;-67
2023/08/28 02:02:50;;;;;;;44.50;42.25;;;;;;;;;;5079930;28;20427;-68
2023/08/28 02:05:16;;;;;;;46.22;43.90;;;;;;;;;;5103491;28;20039;-68
2023/08/28 02:07:42;;;;;;;39.70;37.67;;;;;;;;;;5101870;28;20028;-68
2023/08/28 02:10:07;;;;;;;37.65;35.65;;;;;;;;;;5082869;28;20050;-65
2023/08/28 02:12:33;;;;;;;32.13;30.45;;;;;;;;;;5104004;28;20039;-65
2023/08/28 02:14:58;;;;;;;31.50;29.88;;;;;;;;;;5083080;28;20036;-66
2023/08/28 02:17:23;;;;;;;36.42;34.33;;;;;;;;;;5102003;28;20454;-68
2023/08/28 02:19:49;;;;;;;28.10;26.65;;;;;;;;;;5079272;28;20046;-68
2023/08/28 02:22:14;;;;;;;25.20;23.88;;;;;;;;;;5103349;28;20480;-66
2023/08/28 02:24:39;;;;;;;23.00;21.77;;;;;;;;;;5103285;28;20450;-65
2023/08/28 02:27:05;;;;;;;27.25;25.80;;;;;;;;;;5082184;28;20032;-65
2023/08/28 02:29:30;;;;;;;42.63;40.40;;;;;;;;;;5101730;28;20096;-65
2023/08/28 02:31:56;;;;;;;48.22;45.72;;;;;;;;;;5100862;28;20040;-65
2023/08/28 02:34:21;;;;;;;55.05;52.28;;;;;;;;;;5101919;28;20024;-68
2023/08/28 02:36:46;;;;;;;65.88;62.58;;;;;;;;;;5102769;28;20063;-67
2023/08/28 02:39:12;;;;;;;67.03;63.65;;;;;;;;;;5101203;28;20040;-67
2023/08/28 02:41:37;;;;;;;74.20;70.50;;;;;;;;;;5100783;28;20047;-65
2023/08/28 02:44:03;;;;;;;78.15;74.20;;;;;;;;;;5102042;28;20031;-65
2023/08/28 02:46:28;;;;;;;71.68;68.13;;;;;;;;;;5102272;28;20414;-65
2023/08/28 02:48:53;;;;;;;67.10;63.75;;;;;;;;;;5102096;28;20055;-65
2023/08/28 02:51:19;;;;;;;68.15;64.75;;;;;;;;;;5101699;28;20046;-65
2023/08/28 02:53:44;;;;;;;64.43;61.17;;;;;;;;;;5107011;28;20051;-67
2023/08/28 02:56:23;;;;;;;72.72;69.10;;;;;;;;;;5107769;28;20028;-68
2023/08/28 02:58:49;;;;;;;67.07;63.70;;;;;;;;;;5106095;27;20032;-68
2023/08/28 03:01:15;;;;;;;53.88;51.13;;;;;;;;;;5106592;28;20061;-68
2023/08/28 03:03:40;;;;;;;59.75;56.72;;;;;;;;;;5106626;28;20054;-68
2023/08/28 03:06:06;;;;;;;59.45;56.42;;;;;;;;;;5107304;28;20024;-67
2023/08/28 03:08:31;;;;;;;70.40;66.80;;;;;;;;;;5104683;27;20044;-68
2023/08/28 03:10:56;;;;;;;89.45;84.97;;;;;;;;;;5104387;28;20370;-66
2023/08/28 03:13:22;;;;;;;88.18;83.78;;;;;;;;;;5106040;28;20038;-66
2023/08/28 03:15:47;;;;;;;96.63;91.85;;;;;;;;;;5106944;28;20038;-68
2023/08/28 03:18:12;;;;;;;88.95;82.75;;;;;;;;;;5107340;28;20089;-68
2023/08/28 03:20:38;;;;;;;97.20;92.35;;;;;;;;;;5107158;27;20028;-67
2023/08/28 03:23:03;;;;;;;101.80;96.72;;;;;;;;;;5101231;28;21114;-68
2023/08/28 03:25:29;;;;;;;106.63;101.35;;;;;;;;;;5105785;28;20042;-66
2023/08/28 03:27:54;;;;;;;96.00;91.25;;;;;;;;;;5086620;28;20032;-68
2023/08/28 03:30:19;;;;;;;105.75;100.50;;;;;;;;;;5106698;28;20042;-68
2023/08/28 03:32:45;;;;;;;110.72;105.22;;;;;;;;;;5087168;28;20395;-68
2023/08/28 03:35:10;;;;;;;112.10;106.55;;;;;;;;;;5106784;28;20470;-66
2023/08/28 03:37:35;;;;;;;121.03;115.03;;;;;;;;;;5104298;28;20081;-65
2023/08/28 03:40:03;;;;;;;115.68;109.95;;;;;;;;;;5105083;28;20039;-66
2023/08/28 03:42:29;;;;;;;122.50;116.45;;;;;;;;;;5086609;28;20574;-69
2023/08/28 03:44:54;;;;;;;120.05;114.13;;;;;;;;;;5102809;28;20023;-70
2023/08/28 03:47:20;;;;;;;122.80;116.72;;;;;;;;;;5085075;28;20050;-66
2023/08/28 03:49:45;;;;;;;114.40;108.75;;;;;;;;;;5104642;28;20035;-65
2023/08/28 03:52:10;;;;;;;117.53;111.63;;;;;;;;;;5105672;27;20215;-68
2023/08/28 03:54:36;;;;;;;100.25;95.30;;;;;;;;;;5102926;28;20085;-68
2023/08/28 03:57:01;;;;;;;95.47;90.72;;;;;;;;;;5081666;28;20418;-68
2023/08/28 03:59:27;;;;;;;95.07;90.35;;;;;;;;;;5105572;28;20089;-68
2023/08/28 04:01:53;;;;;;;91.40;86.90;;;;;;;;;;5104439;28;20097;-68
2023/08/28 04:04:19;;;;;;;66.97;63.63;;;;;;;;;;5102426;28;20362;-68
2023/08/28 04:06:46;;;;;;;54.22;51.47;;;;;;;;;;5103976;28;20466;-68
2023/08/28 04:09:13;;;;;;;65.07;61.78;;;;;;;;;;5104227;28;20042;-66
2023/08/28 04:11:38;;;;;;;70.32;66.80;;;;;;;;;;5104302;28;20044;-66
2023/08/28 04:14:03;;;;;;;88.07;83.57;;;;;;;;;;5104702;28;20038;-66
2023/08/28 04:16:29;;;;;;;105.78;100.53;;;;;;;;;;5104623;28;20437;-66
2023/08/28 04:18:54;;;;;;;98.45;93.60;;;;;;;;;;5105882;28;20037;-68
2023/08/28 04:21:20;;;;;;;102.63;97.53;;;;;;;;;;5105972;28;20358;-66
2023/08/28 04:23:45;;;;;;;96.25;91.45;;;;;;;;;;5104869;27;20024;-69
2023/08/28 04:26:11;;;;;;;95.03;90.32;;;;;;;;;;5086508;28;20064;-66
2023/08/28 04:28:36;;;;;;;84.85;80.60;;;;;;;;;;5103405;28;20042;-67
2023/08/28 04:31:02;;;;;;;93.93;89.22;;;;;;;;;;5104696;28;20108;-66
2023/08/28 04:33:29;;;;;;;92.07;87.45;;;;;;;;;;5105254;28;20028;-66
2023/08/28 04:35:55;;;;;;;98.80;93.93;;;;;;;;;;5102929;28;20524;-66
2023/08/28 04:38:20;;;;;;;94.35;89.60;;;;;;;;;;5104992;28;20031;-69
2023/08/28 04:40:45;;;;;;;90.53;86.03;;;;;;;;;;5101384;28;20028;-69
2023/08/28 04:43:11;;;;;;;89.55;85.05;;;;;;;;;;5104752;28;20044;-69
2023/08/28 04:45:36;;;;;;;80.05;76.07;;;;;;;;;;5104350;27;20078;-65
2023/08/28 04:48:02;;;;;;;60.50;57.45;;;;;;;;;;5102395;28;20058;-66
2023/08/28 04:50:27;;;;;;;57.75;54.88;;;;;;;;;;5104667;28;20023;-65
2023/08/28 04:52:52;;;;;;;62.63;59.40;;;;;;;;;;5102377;28;20466;-70
2023/08/28 04:55:18;;;;;;;63.85;60.65;;;;;;;;;;5102076;28;20102;-68
2023/08/28 04:57:43;;;;;;;75.28;71.53;;;;;;;;;;5099516;28;20395;-70
2023/08/28 05:00:09;;;;;;;84.95;80.75;;;;;;;;;;5104267;28;20077;-69
2023/08/28 05:02:34;;;;;;;87.47;83.05;;;;;;;;;;5103219;28;20373;-68
2023/08/28 05:05:00;;;;;;;90.28;85.80;;;;;;;;;;5104888;28;20093;-69
2023/08/28 05:07:25;;;;;;;92.55;87.90;;;;;;;;;;5101774;28;20055;-65
2023/08/28 05:09:50;;;;;;;90.07;85.63;;;;;;;;;;5101976;28;20092;-65
2023/08/28 05:12:16;;;;;;;93.43;88.80;;;;;;;;;;5103748;28;20036;-70
2023/08/28 05:14:41;;;;;;;88.82;84.43;;;;;;;;;;5104783;28;20031;-69
2023/08/28 05:17:06;;;;;;;93.15;88.53;;;;;;;;;;5100873;28;20404;-64
2023/08/28 05:19:32;;;;;;;92.70;88.10;;;;;;;;;;5101967;28;20408;-66
2023/08/28 05:21:57;;;;;;;93.03;88.43;;;;;;;;;;5104484;28;20067;-67
2023/08/28 05:24:23;;;;;;;88.85;84.40;;;;;;;;;;5104086;28;20019;-66
2023/08/28 05:26:48;;;;;;;88.90;84.47;;;;;;;;;;5100901;27;20129;-69
2023/08/28 05:29:14;;;;;;;89.82;85.38;;;;;;;;;;5100326;27;20532;-69
2023/08/28 05:31:39;;;;;;;90.13;85.68;;;;;;;;;;5099134;28;20039;-69
2023/08/28 05:34:04;;;;;;;89.20;84.78;;;;;;;;;;5102361;28;20035;-69
2023/08/28 05:36:30;;;;;;;84.40;80.15;;;;;;;;;;5103988;28;20027;-67
2023/08/28 05:38:55;;;;;;;82.05;77.70;;;;;;;;;;5102041;28;20046;-71
2023/08/28 05:41:21;;;;;;;72.00;68.40;;;;;;;;;;5101830;28;20475;-69
2023/08/28 05:43:46;;;;;;;61.60;58.42;;;;;;;;;;5102558;28;20032;-69
2023/08/28 05:46:11;;;;;;;60.78;57.65;;;;;;;;;;5100153;28;20077;-67
2023/08/28 05:48:37;;;;;;;59.17;56.15;;;;;;;;;;5079748;28;20038;-68
2023/08/28 05:51:03;;;;;;;71.80;68.20;;;;;;;;;;5085515;28;20037;-65
2023/08/28 05:53:29;;;;;;;51.08;48.47;;;;;;;;;;5103015;28;20035;-68
2023/08/28 05:55:54;;;;;;;55.95;53.13;;;;;;;;;;5081973;28;20096;-68
2023/08/28 05:58:20;;;;;;;74.00;70.32;;;;;;;;;;5101342;27;20765;-65
2023/08/28 06:00:46;;;;;;;86.95;82.60;;;;;;;;;;5099291;28;20027;-65
2023/08/28 06:03:12;;;;;;;104.40;99.20;;;;;;;;;;5097698;28;20358;-68
2023/08/28 06:05:38;;;;;;;91.80;87.25;;;;;;;;;;5100073;28;20042;-65
2023/08/28 06:08:04;;;;;;;83.38;79.22;;;;;;;;;;5095797;28;20023;-65
2023/08/28 06:10:29;;;;;;;87.15;82.72;;;;;;;;;;5100508;28;20567;-65
2023/08/28 06:12:54;;;;;;;79.30;75.32;;;;;;;;;;5101663;28;20486;-68
2023/08/28 06:15:20;;;;;;;69.03;65.57;;;;;;;;;;5084055;28;20035;-67
2023/08/28 06:17:46;;;;;;;69.10;65.65;;;;;;;;;;5082350;28;20066;-67
2023/08/28 06:20:12;;;;;;;64.63;61.38;;;;;;;;;;5099861;28;20126;-65
2023/08/28 06:22:38;;;;;;;61.42;58.20;;;;;;;;;;5103267;28;20131;-66
2023/08/28 06:25:04;;;;;;;63.38;60.20;;;;;;;;;;5081760;28;20110;-66
2023/08/28 06:27:30;;;;;;;69.88;66.40;;;;;;;;;;5082254;28;20122;-66
2023/08/28 06:29:55;;;;;;;62.92;59.78;;;;;;;;;;5102846;28;20138;-66
2023/08/28 06:32:21;;;;;;;56.53;53.67;;;;;;;;;;5083079;28;20070;-68
2023/08/28 06:34:46;;;;;;;61.22;57.95;;;;;;;;;;5101742;28;20067;-70
2023/08/28 06:37:11;;;;;;;55.22;52.35;;;;;;;;;;5102758;28;20440;-68
2023/08/28 06:39:37;;;;;;;70.78;67.22;;;;;;;;;;5104115;28;20472;-69
2023/08/28 06:42:02;;;;;;;82.15;78.07;;;;;;;;;;5104128;28;20036;-69
2023/08/28 06:44:28;;;;;;;102.10;97.05;;;;;;;;;;5083745;28;20042;-65
2023/08/28 06:46:53;;;;;;;77.90;74.05;;;;;;;;;;5102565;28;20035;-65
2023/08/28 06:49:19;;;;;;;75.80;72.05;;;;;;;;;;5103314;28;20032;-69
2023/08/28 06:51:45;;;;;;;69.07;65.63;;;;;;;;;;5104964;28;20468;-69
2023/08/28 06:54:11;;;;;;;83.93;79.72;;;;;;;;;;5105568;28;20031;-66
2023/08/28 06:56:36;;;;;;;63.05;59.88;;;;;;;;;;5102560;28;20098;-66
2023/08/28 06:59:02;;;;;;;64.85;61.63;;;;;;;;;;5104354;28;20109;-66
2023/08/28 07:01:27;;;;;;;73.93;69.65;;;;;;;;;;5103136;28;20354;-66
2023/08/28 07:03:52;;;;;;;80.97;76.93;;;;;;;;;;5083332;28;20036;-70
2023/08/28 07:06:18;;;;;;;69.43;65.65;;;;;;;;;;5103572;27;20027;-66
2023/08/28 07:08:43;;;;;;;74.47;70.72;;;;;;;;;;5084053;28;20024;-67
2023/08/28 07:11:09;;;;;;;62.28;59.17;;;;;;;;;;5101036;28;20525;-69
2023/08/28 07:13:34;;;;;;;42.08;39.88;;;;;;;;;;5102286;28;21300;-66
2023/08/28 07:16:00;;;;;;;38.65;36.65;;;;;;;;;;5102380;28;20458;-66
2023/08/28 07:18:26;;;;;;;43.40;41.17;;;;;;;;;;5104887;28;20032;-66
2023/08/28 07:20:51;;;;;;;48.60;45.85;;;;;;;;;;5080315;28;20101;-66
2023/08/28 07:23:17;;;;;;;65.03;61.78;;;;;;;;;;5100912;27;20112;-66
2023/08/28 07:25:44;;;;;;;65.40;62.05;;;;;;;;;;5083553;28;20307;-64
2023/08/28 07:28:09;;;;;;;50.13;47.50;;;;;;;;;;5102992;28;20525;-66
2023/08/28 07:30:35;;;;;;;37.72;35.78;;;;;;;;;;5103863;28;20078;-67
2023/08/28 07:33:01;;;;;;;32.03;30.35;;;;;;;;;;5104242;28;20117;-66
2023/08/28 07:35:29;;;;;;;27.70;26.23;;;;;;;;;;5105797;28;20100;-66
2023/08/28 07:37:54;;;;;;;28.45;26.95;;;;;;;;;;5083020;28;20058;-66
2023/08/28 07:40:20;;;;;;;39.65;37.33;;;;;;;;;;5097524;28;20077;-67
2023/08/28 07:42:45;;;;;;;36.20;34.30;;;;;;;;;;5102807;28;20370;-66
2023/08/28 07:45:10;;;;;;;32.60;30.90;;;;;;;;;;5102571;28;20126;-65
2023/08/28 07:47:36;;;;;;;31.45;29.60;;;;;;;;;;5084497;28;20043;-69
2023/08/28 07:50:03;;;;;;;26.45;24.95;;;;;;;;;;5101660;28;20154;-70
2023/08/28 07:52:28;;;;;;;23.42;22.15;;;;;;;;;;5062588;28;20046;-69
2023/08/28 07:54:54;;;;;;;21.80;20.60;;;;;;;;;;5103297;28;20036;-69
2023/08/28 07:57:23;;;;;;;26.25;24.85;;;;;;;;;;5104136;28;20107;-65
2023/08/28 07:59:48;;;;;;;27.33;25.88;;;;;;;;;;5103017;28;20039;-67
2023/08/28 08:02:14;;;;;;;30.50;28.88;;;;;;;;;;5100213;28;20352;-66
2023/08/28 08:04:39;;;;;;;37.85;35.90;;;;;;;;;;5084400;28;20028;-67
2023/08/28 08:07:04;;;;;;;44.60;42.28;;;;;;;;;;5081007;28;20039;-65
2023/08/28 08:09:30;;;;;;;20.00;18.90;;;;;;;;;;5101720;28;20414;-70
2023/08/28 08:11:55;;;;;;;23.20;21.95;;;;;;;;;;5101826;27;20101;-71
2023/08/28 08:14:22;;;;;;;23.40;22.00;;;;;;;;;;5104496;28;20335;-68
2023/08/28 08:16:47;;;;;;;24.58;23.27;;;;;;;;;;5104663;28;20036;-65
2023/08/28 08:19:12;;;;;;;24.77;23.45;;;;;;;;;;5100335;28;20051;-67
2023/08/28 08:21:38;;;;;;;29.42;27.63;;;;;;;;;;5104033;28;20027;-67
2023/08/28 08:24:03;;;;;;;27.50;26.05;;;;;;;;;;5101481;28;20097;-66
2023/08/28 08:26:29;;;;;;;29.10;27.58;;;;;;;;;;5104213;28;20038;-66
2023/08/28 08:28:54;;;;;;;29.27;27.70;;;;;;;;;;5078770;28;20020;-66
2023/08/28 08:31:20;;;;;;;27.05;25.60;;;;;;;;;;5103731;28;20039;-67
2023/08/28 08:33:45;;;;;;;30.75;29.15;;;;;;;;;;5084808;28;20078;-69
2023/08/28 08:36:14;;;;;;;36.30;34.33;;;;;;;;;;5101162;28;20113;-67
2023/08/28 08:38:39;;;;;;;35.05;33.25;;;;;;;;;;5102093;27;20469;-70
2023/08/28 08:41:07;;;;;;;35.15;33.22;;;;;;;;;;5102382;28;20036;-67
2023/08/28 08:43:33;;;;;;;39.03;36.97;;;;;;;;;;5103611;28;20027;-65
2023/08/28 08:46:04;;;;;;;38.30;36.30;;;;;;;;;;5097783;28;20545;-65
2023/08/28 08:48:34;;;;;;;35.92;34.08;;;;;;;;;;5080963;28;20424;-70
2023/08/28 08:51:07;;;;;;;35.10;33.30;;;;;;;;;;5097863;28;20043;-66
2023/08/28 08:53:55;;;;;;;40.67;38.58;;;;;;;;;;5103154;28;20035;-70
2023/08/28 08:56:23;;;;;;;35.78;33.95;;;;;;;;;;5087607;28;20043;-71
2023/08/28 08:58:50;;;;;;;34.63;32.80;;;;;;;;;;5102224;28;20039;-71
2023/08/28 09:01:16;;;;;;;38.42;36.42;;;;;;;;;;5100705;27;20093;-71
2023/08/28 09:03:43;;;;;;;42.80;40.60;;;;;;;;;;5084336;28;20042;-71
2023/08/28 09:06:08;;;;;;;41.95;39.83;;;;;;;;;;5101149;28;20558;-71
2023/08/28 09:08:40;;;;;;;41.65;39.47;;;;;;;;;;5101306;28;20035;-70
2023/08/28 09:11:06;;;;;;;45.60;43.28;;;;;;;;;;5100795;28;20547;-71
2023/08/28 09:13:32;;;;;;;50.47;47.85;;;;;;;;;;5103231;28;20458;-71
2023/08/28 09:15:57;;;;;;;48.83;46.33;;;;;;;;;;5103828;28;20238;-71
2023/08/28 09:18:25;;;;;;;46.08;43.72;;;;;;;;;;5101556;28;20097;-71
2023/08/28 09:21:10;;;;;;;48.13;45.63;;;;;;;;;;5101735;28;20040;-67
2023/08/28 09:23:41;;;;;;;44.42;42.15;;;;;;;;;;5099916;28;20032;-66
2023/08/28 09:26:07;;;;;;;37.13;35.22;;;;;;;;;;5100060;28;20039;-69
2023/08/28 09:28:32;;;;;;;35.53;33.67;;;;;;;;;;5101019;28;20035;-70
2023/08/28 09:30:57;;;;;;;37.40;35.47;;;;;;;;;;5081956;28;20062;-67
2023/08/28 09:33:23;;;;;;;30.42;28.83;;;;;;;;;;5101166;28;20055;-70
2023/08/28 09:35:48;;;;;;;30.52;28.90;;;;;;;;;;5101107;28;20308;-70
2023/08/28 09:38:14;;;;;;;40.15;38.10;;;;;;;;;;5100725;28;20045;-70
2023/08/28 09:40:42;;;;;;;43.92;41.70;;;;;;;;;;5101913;28;20043;-70
2023/08/28 09:43:12;;;;;;;56.65;53.80;;;;;;;;;;5081021;28;20226;-70
2023/08/28 09:45:38;;;;;;;;;;;;;;;;;;5102570;28;20038;-69
2023/08/28 09:48:04;;;;;;;29.73;28.17;;;;;;;;;;5100314;28;19916;-65
2023/08/28 09:50:31;;;;;;;31.90;30.23;;;;;;;;;;5102398;27;20040;-68
2023/08/28 09:53:12;;;;;;;33.20;31.30;;;;;;;;;;5102162;28;20047;-65
2023/08/28 09:55:40;;;;;;;33.83;32.03;;;;;;;;;;5100978;28;20031;-69
2023/08/28 09:58:10;;;;;;;37.40;35.28;;;;;;;;;;5080323;28;20035;-65
2023/08/28 10:00:38;;;;;;;39.42;37.28;;;;;;;;;;5099681;28;20246;-69
2023/08/28 10:03:06;;;;;;;37.92;35.92;;;;;;;;;;5102067;28;20089;-68
2023/08/28 10:05:35;;;;;;;39.80;37.72;;;;;;;;;;5099205;28;20086;-69
2023/08/28 10:08:04;;;;;;;35.38;33.45;;;;;;;;;;5102287;28;20129;-69
2023/08/28 10:10:29;;;;;;;29.63;28.10;;;;;;;;;;5101667;28;20031;-66
2023/08/28 10:12:55;;;;;;;31.35;29.00;;;;;;;;;;5100626;28;20120;-69
2023/08/28 10:15:22;;;;;;;31.65;30.00;;;;;;;;;;5099334;28;20035;-66
2023/08/28 10:17:48;;;;;;;25.67;24.30;;;;;;;;;;5066357;28;20234;-69
2023/08/28 10:20:17;;;;;;;22.17;20.88;;;;;;;;;;5076557;28;20038;-69
2023/08/28 10:22:43;;;;;;;25.27;23.95;;;;;;;;;;5100936;28;20454;-71
2023/08/28 10:25:12;;;;;;;15.25;14.35;;;;;;;;;;5099833;28;20441;-70
2023/08/28 10:27:37;;;;;;;13.48;12.68;;;;;;;;;;5080087;28;20032;-66
2023/08/28 10:30:03;;;;;;;11.50;10.80;;;;;;;;;;5100686;28;20047;-70
2023/08/28 10:32:30;;;;;;;13.43;12.63;;;;;;;;;;5100141;28;20077;-70
2023/08/28 10:34:57;;;;;;;11.25;10.55;;;;;;;;;;5103561;28;20080;-69
2023/08/28 10:37:23;;;;;;;14.00;13.20;;;;;;;;;;5101200;28;21449;-66
2023/08/28 10:39:49;;;;;;;16.77;15.88;;;;;;;;;;5101464;28;20027;-66
2023/08/28 10:42:18;;;;;;;12.00;11.30;;;;;;;;;;5098934;28;20479;-70
2023/08/28 10:44:45;;;;;;;11.57;10.88;;;;;;;;;;5100315;28;20078;-70
2023/08/28 10:47:15;;;;;;;14.10;13.30;;;;;;;;;;5100175;28;20339;-66
2023/08/28 10:49:41;;;;;;;17.27;16.27;;;;;;;;;;5102231;28;20482;-66
2023/08/28 10:52:07;;;;;;;12.82;12.07;;;;;;;;;;5101266;28;20028;-70
2023/08/28 10:54:40;;;;;;;12.95;12.23;;;;;;;;;;5079892;28;20355;-69
2023/08/28 10:57:10;;;;;;;23.60;22.30;;;;;;;;;;5099386;28;20043;-65
2023/08/28 10:59:45;;;;;;;16.60;15.60;;;;;;;;;;5100932;28;20839;-70
2023/08/28 11:02:11;;;;;;;18.55;17.55;;;;;;;;;;5098767;28;21991;-65
2023/08/28 11:04:39;;;;;;;17.63;16.63;;;;;;;;;;5094789;28;20069;-70
2023/08/28 11:07:08;;;;;;;17.75;16.75;;;;;;;;;;5099430;28;20032;-66
2023/08/28 11:09:35;;;;;;;24.55;22.95;;;;;;;;;;5102239;28;20047;-71
2023/08/28 11:12:00;;;;;;;23.02;21.83;;;;;;;;;;5099840;28;20801;-66
2023/08/28 11:14:31;;;;;;;18.67;17.67;;;;;;;;;;5081724;28;20039;-70
2023/08/28 11:17:15;;;;;;;21.25;20.08;;;;;;;;;;5103073;28;20110;-71
2023/08/28 11:19:55;;;;;;;21.85;20.65;;;;;;;;;;5103032;28;20066;-66
2023/08/28 11:22:41;;;;;;;21.20;20.08;;;;;;;;;;5102868;28;20043;-71
2023/08/28 11:25:14;;;;;;;17.38;16.38;;;;;;;;;;5082753;28;20278;-70
2023/08/28 11:27:53;;;;;;;26.92;25.52;;;;;;;;;;5102900;28;20063;-70
2023/08/28 11:30:20;;;;;;;20.75;19.65;;;;;;;;;;5068306;28;20112;-71
2023/08/28 11:32:49;;;;;;;23.83;22.52;;;;;;;;;;5103132;28;20028;-65
2023/08/28 11:35:17;;;;;;;22.15;20.95;;;;;;;;;;5102320;28;20077;-65
2023/08/28 11:37:46;;;;;;;20.52;19.42;;;;;;;;;;5084478;28;20513;-65
2023/08/28 11:40:17;;;;;;;21.35;20.08;;;;;;;;;;5103188;28;20047;-70
2023/08/28 11:42:42;;;;;;;22.65;21.45;;;;;;;;;;5103607;28;20035;-71
2023/08/28 11:45:08;;;;;;;20.33;19.23;;;;;;;;;;5103093;28;20051;-65
2023/08/28 11:47:34;;;;;;;20.98;19.83;;;;;;;;;;5082184;28;20038;-69
2023/08/28 11:50:03;;;;;;;19.85;18.75;;;;;;;;;;5103720;28;20062;-72
2023/08/28 11:52:29;;;;;;;23.25;21.75;;;;;;;;;;5083950;28;20044;-66
2023/08/28 11:55:03;;;;;;;23.00;21.77;;;;;;;;;;5102986;28;20031;-66
2023/08/28 11:57:29;;;;;;;25.15;23.70;;;;;;;;;;5102411;28;20032;-69
2023/08/28 11:59:55;;;;;;;21.67;20.48;;;;;;;;;;5104335;28;20356;-68
2023/08/28 12:02:21;;;;;;;21.25;20.08;;;;;;;;;;5083684;28;20023;-68
2023/08/28 12:04:49;;;;;;;21.60;20.40;;;;;;;;;;5083554;28;20038;-69
2023/08/28 12:07:26;;;;;;;19.95;18.85;;;;;;;;;;5102496;28;20044;-67
2023/08/28 12:09:53;;;;;;;21.77;20.58;;;;;;;;;;5106673;28;20042;-67
2023/08/28 12:12:19;;;;;;;21.90;20.70;;;;;;;;;;5100414;28;20470;-62
2023/08/28 12:14:46;;;;;;;20.40;19.30;;;;;;;;;;5100352;28;20122;-62
2023/08/28 12:17:16;;;;;;;22.67;21.48;;;;;;;;;;5101885;28;20028;-62
2023/08/28 12:19:42;;;;;;;20.17;19.08;;;;;;;;;;5103620;28;20105;-67
2023/08/28 12:22:08;;;;;;;18.00;17.00;;;;;;;;;;5101873;27;20031;-67
2023/08/28 12:24:41;;;;;;;25.67;23.65;;;;;;;;;;5083079;28;20019;-67
2023/08/28 12:27:09;;;;;;;20.80;19.60;;;;;;;;;;5102245;28;20116;-68
2023/08/28 12:29:34;;;;;;;18.52;17.52;;;;;;;;;;5101842;28;20036;-63
2023/08/28 12:32:05;;;;;;;18.02;16.98;;;;;;;;;;5102005;28;20054;-68
2023/08/28 12:34:34;;;;;;;18.95;17.92;;;;;;;;;;5101811;28;20028;-63
2023/08/28 12:37:08;;;;;;;22.73;21.52;;;;;;;;;;5082188;28;20177;-62
2023/08/28 12:39:34;;;;;;;35.00;33.20;;;;;;;;;;5101094;28;20174;-68
2023/08/28 12:42:00;;;;;;;16.45;15.55;;;;;;;;;;5103625;28;20139;-69
2023/08/28 12:44:27;;;;;;;18.00;17.00;;;;;;;;;;5103972;28;20036;-62
2023/08/28 12:46:53;;;;;;;44.58;42.30;;;;;;;;;;5102667;28;20462;-62
2023/08/28 12:49:19;;;;;;;16.67;15.77;;;;;;;;;;5100749;28;20054;-62
2023/08/28 12:51:45;;;;;;;45.20;42.90;;;;;;;;;;5100895;28;20343;-62
2023/08/28 12:54:19;;;;;;;27.40;26.00;;;;;;;;;;5100910;28;20122;-69
2023/08/28 12:56:44;;;;;;;59.15;56.20;;;;;;;;;;5101380;28;20047;-63
2023/08/28 12:59:10;;;;;;;62.25;59.13;;;;;;;;;;5102564;28;20458;-69
2023/08/28 13:01:35;;;;;;;45.63;43.33;;;;;;;;;;5084285;28;20027;-63
2023/08/28 13:04:01;;;;;;;37.55;35.58;;;;;;;;;;5103481;28;20039;-70
2023/08/28 13:06:26;;;;;;;57.42;54.55;;;;;;;;;;5102391;27;20104;-69
2023/08/28 13:08:51;;;;;;;52.10;49.45;;;;;;;;;;5102198;28;20027;-68
2023/08/28 13:11:20;;;;;;;59.58;56.58;;;;;;;;;;5100537;28;20061;-62
2023/08/28 13:13:45;;;;;;;27.77;26.33;;;;;;;;;;5102361;28;20031;-68
2023/08/28 13:16:11;;;;;;;38.45;36.50;;;;;;;;;;5097991;28;20050;-69
2023/08/28 13:18:36;;;;;;;30.48;28.88;;;;;;;;;;5099959;28;20038;-69
2023/08/28 13:21:03;;;;;;;65.32;62.08;;;;;;;;;;5079135;28;20031;-71
2023/08/28 13:23:28;;;;;;;23.15;21.92;;;;;;;;;;5080257;28;20032;-71
2023/08/28 13:25:54;;;;;;;38.72;36.72;;;;;;;;;;5100138;28;20471;-63
2023/08/28 13:28:20;;;;;;;47.38;44.97;;;;;;;;;;5101128;28;20035;-64
2023/08/28 13:30:46;;;;;;;24.75;23.45;;;;;;;;;;5101450;28;20035;-63
2023/08/28 13:33:12;;;;;;;26.38;24.98;;;;;;;;;;5097273;28;20034;-64
2023/08/28 13:35:38;;;;;;;30.13;28.52;;;;;;;;;;5099218;28;20028;-69
2023/08/28 13:38:06;;;;;;;31.50;29.85;;;;;;;;;;5101900;28;20035;-71
2023/08/28 13:40:32;;;;;;;54.38;51.67;;;;;;;;;;5100897;28;20032;-65
2023/08/28 13:43:03;;;;;;;26.67;25.27;;;;;;;;;;5100799;28;20062;-65
2023/08/28 13:45:29;;;;;;;48.45;45.92;;;;;;;;;;5082009;28;20031;-71
2023/08/28 13:47:54;;;;;;;34.72;32.92;;;;;;;;;;5099619;28;20066;-64
2023/08/28 13:50:20;;;;;;;28.30;26.80;;;;;;;;;;5100366;28;20035;-69
2023/08/28 13:52:46;;;;;;;39.33;37.33;;;;;;;;;;5100233;28;20034;-69
2023/08/28 13:55:11;;;;;;;25.17;23.85;;;;;;;;;;5079043;28;20063;-72
2023/08/28 13:57:37;;;;;;;42.33;40.05;;;;;;;;;;5100662;28;20494;-71
2023/08/28 14:00:04;;;;;;;34.28;32.50;;;;;;;;;;5103101;28;20102;-71
2023/08/28 14:02:31;;;;;;;52.08;49.47;;;;;;;;;;5075700;28;20087;-65
2023/08/28 14:04:56;;;;;;;56.30;53.50;;;;;;;;;;5102947;28;20051;-72
2023/08/28 14:07:22;;;;;;;40.28;38.25;;;;;;;;;;5100136;28;20070;-64
2023/08/28 14:09:48;;;;;;;24.25;22.95;;;;;;;;;;5102306;28;20032;-70
2023/08/28 14:12:13;;;;;;;38.05;36.13;;;;;;;;;;5102533;28;20077;-69
2023/08/28 14:14:38;;;;;;;33.47;31.77;;;;;;;;;;5100221;28;20130;-71